createdAt,value
2022-12-06T00:01:09.564Z,6.50
2022-12-06T00:03:40.054Z,9.10
2022-12-06T00:06:09.876Z,7.72
2022-12-06T00:08:38.334Z,10.38
2022-12-06T00:11:07.700Z,9.25
2022-12-06T00:13:36.262Z,8.57
2022-12-06T00:16:05.308Z,8.02
2022-12-06T00:18:35.462Z,8.43
2022-12-06T00:21:09.371Z,9.95
2022-12-06T00:23:38.323Z,9.40
2022-12-06T00:26:07.292Z,10.32
2022-12-06T00:28:35.330Z,8.52
2022-12-06T00:31:05.734Z,7.85
2022-12-06T00:33:34.740Z,8.82
2022-12-06T00:36:05.222Z,9.20
2022-12-06T00:38:36.433Z,9.88
2022-12-06T00:41:06.860Z,8.30
2022-12-06T00:43:35.947Z,8.60
2022-12-06T00:46:05.280Z,8.55
2022-12-06T00:48:33.669Z,7.93
2022-12-06T00:51:01.934Z,10.60
2022-12-06T00:53:30.488Z,10.18
2022-12-06T00:55:59.833Z,9.85
2022-12-06T00:58:27.870Z,10.00
2022-12-06T01:00:55.967Z,10.77
2022-12-06T01:03:24.356Z,9.98
2022-12-06T01:05:52.687Z,11.43
2022-12-06T01:08:21.229Z,10.50
2022-12-06T01:10:55.848Z,10.38
2022-12-06T01:13:25.234Z,13.00
2022-12-06T01:15:54.212Z,11.52
2022-12-06T01:18:22.464Z,9.30
2022-12-06T01:20:50.308Z,10.52
2022-12-06T01:23:18.187Z,12.48
2022-12-06T01:25:53.232Z,9.52
2022-12-06T01:28:21.155Z,11.07
2022-12-06T01:30:50.427Z,12.25
2022-12-06T01:33:18.425Z,11.10
2022-12-06T01:35:46.358Z,10.73
2022-12-06T01:38:14.208Z,10.98
2022-12-06T01:40:43.710Z,13.73
2022-12-06T01:43:33.703Z,11.48
2022-12-06T01:46:08.117Z,10.60
2022-12-06T01:48:36.709Z,17.17
2022-12-06T01:51:05.990Z,10.02
2022-12-06T01:53:34.351Z,14.32
2022-12-06T01:56:02.784Z,11.88
2022-12-06T01:58:36.811Z,13.38
2022-12-06T02:01:07.083Z,10.98
2022-12-06T02:03:35.575Z,11.43
2022-12-06T02:06:05.723Z,11.95
2022-12-06T02:08:34.652Z,11.30
2022-12-06T02:11:03.908Z,10.55
2022-12-06T02:13:33.329Z,13.77
2022-12-06T02:16:14.328Z,11.82
2022-12-06T02:18:48.265Z,12.18
2022-12-06T02:21:24.420Z,13.88
2022-12-06T02:24:21.275Z,12.70
2022-12-06T02:26:52.153Z,12.20
2022-12-06T02:29:52.285Z,13.70
2022-12-06T02:32:27.227Z,15.48
2022-12-06T02:35:00.352Z,14.55
2022-12-06T02:37:34.240Z,14.98
2022-12-06T02:40:06.385Z,15.57
2022-12-06T02:42:39.597Z,13.85
2022-12-06T02:45:13.140Z,16.55
2022-12-06T02:47:43.962Z,15.65
2022-12-06T02:50:15.845Z,15.07
2022-12-06T02:52:47.056Z,15.07
2022-12-06T02:55:17.776Z,12.90
2022-12-06T02:57:48.060Z,15.80
2022-12-06T03:00:39.489Z,13.07
2022-12-06T03:03:44.605Z,14.13
2022-12-06T03:06:39.909Z,14.57
2022-12-06T03:09:19.419Z,12.90
2022-12-06T03:11:56.706Z,13.13
2022-12-06T03:14:26.507Z,13.13
2022-12-06T03:17:03.266Z,14.32
2022-12-06T03:19:34.491Z,14.35
2022-12-06T03:22:07.310Z,12.93
2022-12-06T03:24:38.165Z,14.57
2022-12-06T03:27:09.404Z,14.98
2022-12-06T03:29:41.976Z,14.27
2022-12-06T03:32:13.294Z,15.82
2022-12-06T03:34:45.212Z,14.40
2022-12-06T03:37:16.662Z,19.92
2022-12-06T03:39:49.244Z,12.63
2022-12-06T03:42:18.741Z,18.65
2022-12-06T03:44:47.977Z,19.48
2022-12-06T03:47:20.204Z,15.98
2022-12-06T03:52:19.391Z,14.50
2022-12-06T03:54:47.369Z,16.33
2022-12-06T03:57:15.375Z,16.05
2022-12-06T03:59:43.198Z,18.17
2022-12-06T04:02:11.101Z,14.40
2022-12-06T04:04:39.088Z,16.05
2022-12-06T04:07:08.550Z,17.23
2022-12-06T04:10:02.579Z,15.60
2022-12-06T04:12:49.064Z,15.40
2022-12-06T04:15:17.183Z,14.77
2022-12-06T04:18:02.817Z,13.63
2022-12-06T04:20:52.588Z,15.27
2022-12-06T04:23:21.321Z,13.45
2022-12-06T04:25:49.444Z,13.10
2022-12-06T04:28:34.653Z,13.38
2022-12-06T04:31:22.386Z,11.27
2022-12-06T04:34:08.054Z,12.70
2022-12-06T04:36:53.588Z,12.77
2022-12-06T04:39:22.863Z,13.43
2022-12-06T04:42:08.608Z,12.50
2022-12-06T04:44:36.514Z,14.65
2022-12-06T04:47:04.823Z,11.82
2022-12-06T04:49:32.870Z,15.85
2022-12-06T04:52:00.970Z,16.13
2022-12-06T04:54:31.179Z,13.25
2022-12-06T04:56:59.795Z,14.45
2022-12-06T04:59:28.485Z,15.15
2022-12-06T05:01:57.296Z,14.82
2022-12-06T05:04:25.496Z,14.45
2022-12-06T05:06:53.473Z,12.57
2022-12-06T05:09:21.517Z,15.30
2022-12-06T05:11:50.716Z,17.10
2022-12-06T05:14:18.615Z,15.63
2022-12-06T05:16:46.489Z,14.48
2022-12-06T05:19:15.165Z,13.95
2022-12-06T05:21:43.121Z,15.50
2022-12-06T05:24:11.243Z,12.80
2022-12-06T05:26:39.192Z,13.75
2022-12-06T05:29:08.392Z,14.82
2022-12-06T05:31:36.474Z,14.40
2022-12-06T05:34:04.427Z,15.45
2022-12-06T05:36:32.308Z,15.95
2022-12-06T05:39:00.162Z,17.80
2022-12-06T05:41:28.197Z,14.98
2022-12-06T05:43:56.059Z,15.43
2022-12-06T05:46:25.321Z,13.98
2022-12-06T05:48:53.262Z,17.27
2022-12-06T05:51:21.077Z,13.43
2022-12-06T05:53:48.918Z,14.80
2022-12-06T05:56:16.820Z,15.25
2022-12-06T05:58:44.727Z,14.25
2022-12-06T06:01:12.678Z,17.52
2022-12-06T06:03:47.084Z,18.23
2022-12-06T06:06:15.866Z,15.35
2022-12-06T06:08:43.854Z,16.27
2022-12-06T06:11:12.099Z,19.05
2022-12-06T06:13:40.032Z,18.98
2022-12-06T06:16:08.859Z,19.85
2022-12-06T06:18:36.800Z,17.35
2022-12-06T06:21:06.308Z,17.80
2022-12-06T06:23:34.549Z,19.30
2022-12-06T06:26:07.797Z,20.48
2022-12-06T06:28:35.694Z,21.45
2022-12-06T06:31:03.940Z,20.52
2022-12-06T06:33:31.802Z,19.83
2022-12-06T06:35:59.693Z,20.20
2022-12-06T06:38:28.898Z,21.08
2022-12-06T06:40:56.722Z,24.52
2022-12-06T06:43:24.586Z,19.70
2022-12-06T06:45:56.216Z,22.02
2022-12-06T06:48:25.872Z,18.77
2022-12-06T06:50:57.333Z,24.25
2022-12-06T06:53:28.066Z,19.83
2022-12-06T06:55:56.302Z,23.13
2022-12-06T06:58:24.293Z,21.48
2022-12-06T07:00:55.050Z,22.15
2022-12-06T07:03:24.021Z,20.88
2022-12-06T07:05:55.840Z,23.98
2022-12-06T07:08:24.702Z,21.55
2022-12-06T07:10:54.274Z,24.80
2022-12-06T07:13:24.221Z,22.00
2022-12-06T07:15:52.644Z,23.92
2022-12-06T07:18:21.078Z,23.40
2022-12-06T07:20:50.411Z,23.30
2022-12-06T07:23:18.251Z,25.50
2022-12-06T07:25:46.096Z,22.13
2022-12-06T07:28:15.279Z,21.55
2022-12-06T07:30:43.279Z,22.77
2022-12-06T07:33:11.137Z,25.02
2022-12-06T07:38:26.797Z,23.98
2022-12-06T07:41:04.368Z,20.70
2022-12-06T07:43:51.834Z,21.80
2022-12-06T07:46:19.849Z,21.90
2022-12-06T07:48:47.831Z,23.00
2022-12-06T07:51:15.667Z,21.67
2022-12-06T07:53:43.703Z,21.17
2022-12-06T07:56:11.842Z,22.80
2022-12-06T07:58:41.962Z,21.30
2022-12-06T08:01:09.848Z,20.35
2022-12-06T08:03:38.348Z,22.13
2022-12-06T08:06:06.726Z,22.48
2022-12-06T08:08:34.636Z,19.30
2022-12-06T08:11:03.155Z,25.77
2022-12-06T08:13:31.250Z,21.45
2022-12-06T08:16:00.514Z,24.85
2022-12-06T08:18:28.515Z,19.83
2022-12-06T08:20:56.358Z,17.65
2022-12-06T08:23:26.867Z,20.77
2022-12-06T08:25:59.188Z,19.92
2022-12-06T08:28:27.362Z,18.13
2022-12-06T08:31:01.239Z,17.80
2022-12-06T08:33:33.838Z,17.20
2022-12-06T08:36:01.693Z,15.80
2022-12-06T08:38:29.900Z,16.80
2022-12-06T08:40:57.754Z,19.17
2022-12-06T08:43:25.641Z,19.13
2022-12-06T08:45:54.036Z,18.92
2022-12-06T08:48:22.273Z,17.05
2022-12-06T08:50:51.544Z,18.33
2022-12-06T08:53:19.383Z,17.85
2022-12-06T08:56:01.985Z,18.15
2022-12-06T08:58:30.713Z,17.55
2022-12-06T09:00:58.672Z,16.85
2022-12-06T09:03:26.701Z,17.08
2022-12-06T09:05:55.919Z,16.15
2022-12-06T09:08:23.992Z,17.42
2022-12-06T09:10:52.005Z,16.63
2022-12-06T09:13:19.834Z,19.70
2022-12-06T09:15:47.760Z,17.67
2022-12-06T09:18:15.738Z,15.18
2022-12-06T09:20:44.021Z,15.73
2022-12-06T09:23:13.313Z,16.70
2022-12-06T09:25:42.536Z,16.80
2022-12-06T09:28:11.499Z,17.33
2022-12-06T09:30:39.349Z,16.00
2022-12-06T09:33:07.224Z,19.60
2022-12-06T09:35:36.130Z,16.35
2022-12-06T09:38:04.249Z,21.17
2022-12-06T09:40:42.556Z,17.75
2022-12-06T09:43:27.360Z,15.85
2022-12-06T09:46:11.928Z,17.85
2022-12-06T09:48:59.679Z,15.93
2022-12-06T09:51:46.838Z,15.73
2022-12-06T09:54:33.730Z,16.65
2022-12-06T09:57:08.340Z,15.90
2022-12-06T09:59:49.045Z,18.45
2022-12-06T10:02:33.032Z,15.90
2022-12-06T10:05:24.404Z,17.85
2022-12-06T10:07:59.891Z,19.80
2022-12-06T10:10:37.912Z,23.15
2022-12-06T10:13:13.995Z,17.33
2022-12-06T10:15:53.626Z,17.90
2022-12-06T10:18:44.422Z,14.85
2022-12-06T10:21:21.272Z,15.25
2022-12-06T10:24:02.148Z,14.75
2022-12-06T10:26:38.710Z,16.38
2022-12-06T10:29:17.861Z,14.52
2022-12-06T10:31:56.007Z,14.75
2022-12-06T10:34:33.555Z,14.32
2022-12-06T10:37:09.323Z,14.63
2022-12-06T10:39:52.080Z,13.88
2022-12-06T10:42:30.726Z,14.73
2022-12-06T10:45:26.916Z,13.85
2022-12-06T10:47:56.029Z,13.38
2022-12-06T10:50:29.484Z,12.95
2022-12-06T10:53:02.997Z,13.30
2022-12-06T10:55:35.858Z,15.77
2022-12-06T10:58:14.297Z,14.50
2022-12-06T11:00:53.326Z,11.20
2022-12-06T11:03:25.184Z,11.98
2022-12-06T11:05:57.030Z,12.10
2022-12-06T11:08:29.507Z,12.15
2022-12-06T11:10:59.233Z,11.05
2022-12-06T11:13:36.367Z,12.23
2022-12-06T11:16:10.959Z,10.60
2022-12-06T11:18:39.372Z,9.35
2022-12-06T11:21:17.105Z,11.63
2022-12-06T11:23:53.232Z,9.68
2022-12-06T11:26:31.248Z,10.80
2022-12-06T11:29:05.787Z,10.13
2022-12-06T11:31:38.967Z,8.68
2022-12-06T11:34:17.110Z,10.68
2022-12-06T11:36:47.481Z,9.32
2022-12-06T11:39:16.778Z,8.43
2022-12-06T11:41:47.901Z,8.27
2022-12-06T11:44:20.358Z,7.40
2022-12-06T11:46:54.529Z,7.55
2022-12-06T11:49:28.596Z,8.20
2022-12-06T11:51:58.852Z,9.85
2022-12-06T11:54:32.726Z,10.15
2022-12-06T11:57:12.019Z,9.48
2022-12-06T11:59:39.887Z,9.35
2022-12-06T12:02:31.446Z,6.80
2022-12-06T12:05:10.129Z,9.73
2022-12-06T12:07:41.440Z,11.07
2022-12-06T12:10:31.503Z,5.80
2022-12-06T12:13:35.779Z,9.38
2022-12-06T12:16:07.393Z,7.82
2022-12-06T12:18:38.774Z,11.52
2022-12-06T12:21:08.393Z,9.23
2022-12-06T12:23:39.137Z,14.82
2022-12-06T12:26:14.885Z,10.60
2022-12-06T12:28:44.476Z,6.90
2022-12-06T12:31:19.550Z,9.48
2022-12-06T12:33:49.560Z,11.30
2022-12-06T12:36:23.052Z,6.75
2022-12-06T12:38:55.821Z,6.13
2022-12-06T12:41:29.360Z,6.78
2022-12-06T12:44:28.824Z,7.70
2022-12-06T12:46:55.920Z,8.05
2022-12-06T12:49:31.101Z,6.32
2022-12-06T12:52:00.230Z,7.25
2022-12-06T12:54:31.663Z,5.22
2022-12-06T12:57:01.772Z,7.60
2022-12-06T12:59:37.284Z,6.28
2022-12-06T13:02:15.810Z,7.10
2022-12-06T13:04:48.762Z,6.82
2022-12-06T13:07:21.664Z,7.78
2022-12-06T13:10:01.446Z,5.72
2022-12-06T13:12:34.051Z,6.35
2022-12-06T13:15:07.529Z,6.03
2022-12-06T13:17:38.474Z,7.07
2022-12-06T13:20:21.897Z,5.15
2022-12-06T13:22:52.847Z,7.10
2022-12-06T13:25:20.696Z,7.13
2022-12-06T13:27:52.405Z,6.28
2022-12-06T13:30:22.192Z,5.00
2022-12-06T13:32:54.793Z,7.07
2022-12-06T13:35:28.467Z,7.03
2022-12-06T13:37:58.723Z,8.10
2022-12-06T13:40:40.684Z,6.15
2022-12-06T13:43:56.105Z,6.65
2022-12-06T13:46:27.979Z,6.00
2022-12-06T13:48:56.999Z,9.82
2022-12-06T13:51:58.023Z,6.38
2022-12-06T13:54:34.496Z,6.45
2022-12-06T13:57:19.308Z,6.50
2022-12-06T13:59:47.449Z,7.13
2022-12-06T14:02:52.187Z,5.88
2022-12-06T14:08:35.286Z,7.10
2022-12-06T14:11:23.703Z,6.65
2022-12-06T14:14:03.270Z,5.65
2022-12-06T14:16:36.604Z,8.73
2022-12-06T14:19:14.824Z,5.05
2022-12-06T14:21:44.772Z,6.00
2022-12-06T14:24:33.196Z,6.40
2022-12-06T14:27:12.056Z,6.85
2022-12-06T14:29:41.164Z,6.68
2022-12-06T14:32:09.825Z,5.15
2022-12-06T14:34:38.139Z,6.90
2022-12-06T14:37:20.936Z,5.30
2022-12-06T14:39:54.088Z,6.18
2022-12-06T14:42:40.334Z,4.68
2022-12-06T14:45:14.778Z,4.70
2022-12-06T14:47:44.490Z,5.43
2022-12-06T14:50:25.827Z,4.47
2022-12-06T14:52:59.077Z,6.78
2022-12-06T14:55:30.221Z,7.65
2022-12-06T14:58:00.548Z,6.65
2022-12-06T15:00:35.334Z,8.00
2022-12-06T15:03:22.678Z,9.13
2022-12-06T15:06:15.185Z,6.97
2022-12-06T15:08:44.181Z,6.05
2022-12-06T15:11:49.988Z,6.88
2022-12-06T15:14:19.711Z,9.27
2022-12-06T15:16:58.044Z,6.35
2022-12-06T15:19:26.198Z,7.20
2022-12-06T15:21:55.072Z,6.90
2022-12-06T15:24:24.484Z,7.18
2022-12-06T15:26:54.305Z,5.93
2022-12-06T15:29:22.253Z,4.95
2022-12-06T15:31:52.929Z,5.65
2022-12-06T15:34:25.191Z,5.43
2022-12-06T15:39:41.387Z,5.18
2022-12-06T15:42:16.985Z,4.72
2022-12-06T15:44:49.106Z,5.07
2022-12-06T15:47:18.215Z,6.25
2022-12-06T15:49:46.426Z,4.95
2022-12-06T15:52:17.244Z,4.78
2022-12-06T15:54:45.545Z,6.00
2022-12-06T15:57:14.810Z,5.70
2022-12-06T15:59:42.718Z,5.68
2022-12-06T16:02:15.820Z,7.72
2022-12-06T16:04:44.426Z,9.55
2022-12-06T16:07:18.393Z,6.45
2022-12-06T16:09:46.572Z,7.82
2022-12-06T16:12:15.811Z,5.75
2022-12-06T16:14:43.724Z,9.02
2022-12-06T16:17:11.883Z,7.13
2022-12-06T16:19:57.415Z,7.15
2022-12-06T16:22:45.228Z,4.85
2022-12-06T16:25:12.096Z,7.38
2022-12-06T16:27:41.272Z,5.72
2022-12-06T16:30:10.182Z,5.50
2022-12-06T16:32:38.005Z,6.43
2022-12-06T16:35:06.227Z,5.95
2022-12-06T16:37:34.072Z,6.88
2022-12-06T16:40:01.935Z,6.15
2022-12-06T16:42:29.875Z,5.97
2022-12-06T16:44:59.235Z,6.65
2022-12-06T16:49:54.002Z,6.93
2022-12-06T16:52:22.071Z,9.15
2022-12-06T16:54:49.908Z,9.27
2022-12-06T16:57:19.416Z,9.65
2022-12-06T16:59:47.316Z,8.30
2022-12-06T17:02:26.535Z,7.20
2022-12-06T17:04:54.910Z,8.13
2022-12-06T17:07:23.014Z,9.90
2022-12-06T17:09:50.841Z,11.25
2022-12-06T17:12:18.752Z,10.00
2022-12-06T17:14:46.805Z,8.95
2022-12-06T17:17:16.523Z,8.20
2022-12-06T17:19:45.722Z,8.38
2022-12-06T17:22:16.209Z,8.25
2022-12-06T17:24:44.162Z,9.80
2022-12-06T17:27:14.754Z,9.48
2022-12-06T17:29:43.654Z,9.45
2022-12-06T17:32:11.805Z,9.25
2022-12-06T17:34:39.674Z,9.65
2022-12-06T17:37:09.082Z,9.77
2022-12-06T17:39:37.126Z,9.15
2022-12-06T17:42:23.244Z,9.25
2022-12-06T17:44:51.537Z,8.88
2022-12-06T17:47:19.411Z,10.60
2022-12-06T17:49:47.364Z,8.77
2022-12-06T17:52:16.639Z,9.20
2022-12-06T17:54:44.619Z,11.70
2022-12-06T17:57:16.132Z,9.70
2022-12-06T17:59:44.581Z,11.35
2022-12-06T18:02:15.779Z,11.23
2022-12-06T18:04:44.874Z,11.98
2022-12-06T18:07:13.255Z,12.60
2022-12-06T18:09:42.509Z,12.23
2022-12-06T18:12:11.003Z,10.05
2022-12-06T18:14:38.966Z,10.00
2022-12-06T18:17:06.904Z,8.80
2022-12-06T18:19:35.115Z,11.85
2022-12-06T18:22:03.420Z,10.43
2022-12-06T18:24:36.165Z,9.95
2022-12-06T18:27:06.239Z,11.70
2022-12-06T18:29:35.050Z,14.32
2022-12-06T18:32:03.771Z,11.50
2022-12-06T18:34:37.461Z,11.18
2022-12-06T18:37:10.520Z,12.15
2022-12-06T18:39:41.143Z,11.48
2022-12-06T18:42:10.300Z,8.80
2022-12-06T18:44:40.816Z,11.75
2022-12-06T18:47:08.616Z,12.90
2022-12-06T18:49:36.545Z,13.55
2022-12-06T18:52:06.761Z,12.27
2022-12-06T18:54:34.568Z,11.63
2022-12-06T18:57:02.376Z,11.95
2022-12-06T18:59:37.535Z,11.80
2022-12-06T19:02:05.458Z,10.65
2022-12-06T19:04:33.618Z,12.27
2022-12-06T19:07:01.587Z,11.82
2022-12-06T19:09:29.385Z,12.93
2022-12-06T19:11:57.258Z,15.20
2022-12-06T19:14:25.111Z,13.27
2022-12-06T19:16:54.287Z,14.20
2022-12-06T19:19:26.751Z,13.38
2022-12-06T19:21:55.481Z,14.32
2022-12-06T19:24:25.096Z,13.90
2022-12-06T19:26:53.891Z,15.18
2022-12-06T19:29:22.166Z,15.18
2022-12-06T19:31:50.300Z,13.88
2022-12-06T19:34:21.762Z,12.57
2022-12-06T19:36:50.404Z,9.15
2022-12-06T19:39:19.278Z,14.35
2022-12-06T19:42:07.588Z,13.73
2022-12-06T19:44:35.803Z,14.60
2022-12-06T19:47:03.653Z,31.50
2022-12-06T19:49:32.790Z,22.05
2022-12-06T19:52:00.701Z,16.00
2022-12-06T19:54:30.076Z,15.38
2022-12-06T19:56:59.885Z,16.13
2022-12-06T19:59:29.509Z,15.85
2022-12-06T20:01:58.327Z,14.85
2022-12-06T20:04:28.424Z,16.67
2022-12-06T20:06:57.826Z,15.13
2022-12-06T20:09:28.206Z,16.35
2022-12-06T20:12:02.656Z,15.80
2022-12-06T20:14:33.695Z,14.32
2022-12-06T20:17:06.142Z,15.70
2022-12-06T20:19:34.625Z,15.07
2022-12-06T20:22:05.998Z,17.02
2022-12-06T20:24:37.120Z,12.40
2022-12-06T20:27:05.164Z,14.27
2022-12-06T20:29:33.015Z,18.48
2022-12-06T20:32:07.123Z,18.48
2022-12-06T20:34:35.279Z,18.48
2022-12-06T20:37:06.315Z,15.38
2022-12-06T20:39:36.412Z,17.67
2022-12-06T20:42:05.903Z,17.67
2022-12-06T20:44:34.187Z,21.48
2022-12-06T20:47:02.073Z,17.95
2022-12-06T20:49:29.988Z,19.20
2022-12-06T20:51:59.538Z,16.80
2022-12-06T20:54:31.160Z,19.55
2022-12-06T20:57:06.258Z,12.95
2022-12-06T20:59:34.248Z,19.45
2022-12-06T21:02:02.350Z,17.75
2022-12-06T21:04:30.260Z,19.83
2022-12-06T21:06:58.528Z,17.67
2022-12-06T21:09:27.768Z,19.40
2022-12-06T21:11:55.571Z,17.50
2022-12-06T21:14:23.443Z,17.77
2022-12-06T21:16:51.266Z,19.23
2022-12-06T21:19:20.443Z,17.20
2022-12-06T21:21:50.420Z,19.55
2022-12-06T21:24:20.339Z,18.80
2022-12-06T21:26:50.429Z,15.80
2022-12-06T21:29:21.667Z,15.77
2022-12-06T21:31:51.744Z,17.08
2022-12-06T21:34:19.857Z,15.52
2022-12-06T21:36:47.721Z,14.18
2022-12-06T21:39:15.887Z,16.83
2022-12-06T21:41:44.326Z,16.70
2022-12-06T21:44:16.027Z,16.17
2022-12-06T21:46:43.878Z,13.00
2022-12-06T21:49:12.794Z,14.45
2022-12-06T21:51:40.577Z,15.15
2022-12-06T21:54:08.553Z,14.77
2022-12-06T21:56:36.391Z,12.98
2022-12-06T21:59:04.225Z,13.32
2022-12-06T22:01:40.766Z,13.98
2022-12-06T22:04:08.632Z,15.07
2022-12-06T22:06:37.295Z,14.25
2022-12-06T22:09:06.486Z,11.80
2022-12-06T22:11:35.475Z,13.73
2022-12-06T22:14:04.796Z,11.95
2022-12-06T22:16:34.059Z,13.93
2022-12-06T22:19:02.398Z,12.70
2022-12-06T22:21:32.575Z,11.45
2022-12-06T22:24:00.794Z,13.02
2022-12-06T22:26:30.737Z,12.80
2022-12-06T22:28:59.638Z,13.25
2022-12-06T22:31:29.911Z,14.10
2022-12-06T22:33:59.290Z,10.68
2022-12-06T22:36:28.554Z,9.50
2022-12-06T22:38:57.880Z,11.70
2022-12-06T22:41:26.073Z,10.07
2022-12-06T22:43:55.582Z,10.73
2022-12-06T22:46:24.012Z,13.30
2022-12-06T22:48:51.848Z,10.48
2022-12-06T22:51:22.884Z,12.35
2022-12-06T22:53:57.122Z,10.27
2022-12-06T22:56:25.990Z,8.88
2022-12-06T22:58:54.478Z,10.45
2022-12-06T23:01:25.489Z,10.80
2022-12-06T23:03:54.105Z,9.35
2022-12-06T23:06:25.980Z,7.88
2022-12-06T23:08:54.776Z,9.38
2022-12-06T23:11:23.945Z,9.70
2022-12-06T23:13:51.984Z,10.52
2022-12-06T23:16:21.886Z,9.10
2022-12-06T23:18:50.593Z,7.97
2022-12-06T23:21:20.715Z,8.38
2022-12-06T23:23:51.465Z,8.20
2022-12-06T23:26:21.430Z,9.35
2022-12-06T23:28:49.814Z,9.90
2022-12-06T23:31:19.282Z,9.85
2022-12-06T23:33:47.928Z,9.68
2022-12-06T23:36:18.898Z,10.43
2022-12-06T23:38:46.766Z,8.80
2022-12-06T23:41:18.064Z,8.38
2022-12-06T23:43:46.054Z,7.95
2022-12-06T23:46:21.803Z,9.63
2022-12-06T23:48:50.216Z,10.88
2022-12-06T23:51:20.776Z,10.30
2022-12-06T23:53:52.043Z,8.48
2022-12-06T23:56:22.795Z,7.65
2022-12-06T23:58:51.548Z,11.10
